sensor_id;sensor_type;location;lat;lon;timestamp;temperature;humidity
10692;DHT22;5396;50.950;6.988;2023-10-09T00:02:11;14.70;99.90
10692;DHT22;5396;50.950;6.988;2023-10-09T00:04:38;14.70;99.90
10692;DHT22;5396;50.950;6.988;2023-10-09T00:07:07;14.70;99.90
10692;DHT22;5396;50.950;6.988;2023-10-09T00:09:37;14.70;99.90
10692;DHT22;5396;50.950;6.988;2023-10-09T00:12:21;14.80;99.90
10692;DHT22;5396;50.950;6.988;2023-10-09T00:14:51;14.70;99.90
10692;DHT22;5396;50.950;6.988;2023-10-09T00:17:33;14.70;99.90
10692;DHT22;5396;50.950;6.988;2023-10-09T00:19:59;14.70;99.90
10692;DHT22;5396;50.950;6.988;2023-10-09T00:22:26;14.70;99.90
10692;DHT22;5396;50.950;6.988;2023-10-09T00:24:54;14.70;99.90
10692;DHT22;5396;50.950;6.988;2023-10-09T00:27:42;14.70;99.90
10692;DHT22;5396;50.950;6.988;2023-10-09T00:30:12;14.70;99.90
10692;DHT22;5396;50.950;6.988;2023-10-09T00:32:47;14.60;99.90
10692;DHT22;5396;50.950;6.988;2023-10-09T00:35:27;14.60;99.90
10692;DHT22;5396;50.950;6.988;2023-10-09T00:38:07;14.60;99.90
10692;DHT22;5396;50.950;6.988;2023-10-09T00:40:45;14.60;99.90
10692;DHT22;5396;50.950;6.988;2023-10-09T00:43:15;14.60;99.90
10692;DHT22;5396;50.950;6.988;2023-10-09T00:45:46;14.60;99.90
10692;DHT22;5396;50.950;6.988;2023-10-09T00:48:13;14.50;99.90
10692;DHT22;5396;50.950;6.988;2023-10-09T00:50:55;14.50;99.90
10692;DHT22;5396;50.950;6.988;2023-10-09T00:53:23;14.40;99.90
10692;DHT22;5396;50.950;6.988;2023-10-09T00:56:00;14.30;99.90
10692;DHT22;5396;50.950;6.988;2023-10-09T00:58:36;14.20;99.90
10692;DHT22;5396;50.950;6.988;2023-10-09T01:01:02;14.20;99.90
10692;DHT22;5396;50.950;6.988;2023-10-09T01:03:30;14.20;99.90
10692;DHT22;5396;50.950;6.988;2023-10-09T01:06:01;14.10;99.90
10692;DHT22;5396;50.950;6.988;2023-10-09T01:08:38;14.10;99.90
10692;DHT22;5396;50.950;6.988;2023-10-09T01:11:19;14.10;99.90
10692;DHT22;5396;50.950;6.988;2023-10-09T01:13:48;14.10;99.90
10692;DHT22;5396;50.950;6.988;2023-10-09T01:16:17;14.00;99.90
10692;DHT22;5396;50.950;6.988;2023-10-09T01:18:51;14.10;99.90
10692;DHT22;5396;50.950;6.988;2023-10-09T01:21:18;14.10;99.90
10692;DHT22;5396;50.950;6.988;2023-10-09T01:23:48;14.10;99.90
10692;DHT22;5396;50.950;6.988;2023-10-09T01:26:40;14.10;99.90
10692;DHT22;5396;50.950;6.988;2023-10-09T01:29:19;14.20;99.90
10692;DHT22;5396;50.950;6.988;2023-10-09T01:31:49;14.20;99.90
10692;DHT22;5396;50.950;6.988;2023-10-09T01:34:32;14.30;99.90
10692;DHT22;5396;50.950;6.988;2023-10-09T01:37:16;14.30;99.90
10692;DHT22;5396;50.950;6.988;2023-10-09T01:39:49;14.30;99.90
10692;DHT22;5396;50.950;6.988;2023-10-09T01:42:16;14.30;99.90
10692;DHT22;5396;50.950;6.988;2023-10-09T01:45:02;14.30;99.90
10692;DHT22;5396;50.950;6.988;2023-10-09T01:47:48;14.30;99.90
10692;DHT22;5396;50.950;6.988;2023-10-09T01:50:17;14.30;99.90
10692;DHT22;5396;50.950;6.988;2023-10-09T01:53:04;14.40;99.90
10692;DHT22;5396;50.950;6.988;2023-10-09T01:55:32;14.30;99.90
10692;DHT22;5396;50.950;6.988;2023-10-09T01:58:07;14.40;99.90
10692;DHT22;5396;50.950;6.988;2023-10-09T02:00:42;14.40;99.90
10692;DHT22;5396;50.950;6.988;2023-10-09T02:03:13;14.40;99.90
10692;DHT22;5396;50.950;6.988;2023-10-09T02:05:42;14.40;99.90
10692;DHT22;5396;50.950;6.988;2023-10-09T02:08:07;14.40;99.90
10692;DHT22;5396;50.950;6.988;2023-10-09T02:10:38;14.50;99.90
10692;DHT22;5396;50.950;6.988;2023-10-09T02:13:06;14.40;99.90
10692;DHT22;5396;50.950;6.988;2023-10-09T02:15:33;14.50;99.90
10692;DHT22;5396;50.950;6.988;2023-10-09T02:18:09;14.50;99.90
10692;DHT22;5396;50.950;6.988;2023-10-09T02:21:05;14.50;99.90
10692;DHT22;5396;50.950;6.988;2023-10-09T02:23:33;14.60;99.90
10692;DHT22;5396;50.950;6.988;2023-10-09T02:26:16;14.60;99.90
10692;DHT22;5396;50.950;6.988;2023-10-09T02:28:52;14.60;99.90
10692;DHT22;5396;50.950;6.988;2023-10-09T02:31:28;14.60;99.90
10692;DHT22;5396;50.950;6.988;2023-10-09T02:34:09;14.60;99.90
10692;DHT22;5396;50.950;6.988;2023-10-09T02:36:36;14.70;99.90
10692;DHT22;5396;50.950;6.988;2023-10-09T02:39:12;14.60;99.90
10692;DHT22;5396;50.950;6.988;2023-10-09T02:41:56;14.60;99.90
10692;DHT22;5396;50.950;6.988;2023-10-09T02:44:51;14.60;99.90
10692;DHT22;5396;50.950;6.988;2023-10-09T02:47:20;14.60;99.90
10692;DHT22;5396;50.950;6.988;2023-10-09T02:49:50;14.70;99.90
10692;DHT22;5396;50.950;6.988;2023-10-09T02:52:16;14.70;99.90
10692;DHT22;5396;50.950;6.988;2023-10-09T02:54:53;14.70;99.90
10692;DHT22;5396;50.950;6.988;2023-10-09T02:57:28;14.70;99.90
10692;DHT22;5396;50.950;6.988;2023-10-09T03:00:05;14.70;99.90
10692;DHT22;5396;50.950;6.988;2023-10-09T03:02:54;14.60;99.90
10692;DHT22;5396;50.950;6.988;2023-10-09T03:05:19;14.60;99.90
10692;DHT22;5396;50.950;6.988;2023-10-09T03:07:46;14.60;99.90
10692;DHT22;5396;50.950;6.988;2023-10-09T03:10:12;14.50;99.90
10692;DHT22;5396;50.950;6.988;2023-10-09T03:12:38;14.60;99.90
10692;DHT22;5396;50.950;6.988;2023-10-09T03:15:05;14.50;99.90
10692;DHT22;5396;50.950;6.988;2023-10-09T03:17:34;14.50;99.90
10692;DHT22;5396;50.950;6.988;2023-10-09T03:20:04;14.50;99.90
10692;DHT22;5396;50.950;6.988;2023-10-09T03:22:38;14.60;99.90
10692;DHT22;5396;50.950;6.988;2023-10-09T03:25:04;14.60;99.90
10692;DHT22;5396;50.950;6.988;2023-10-09T03:27:38;14.60;99.90
10692;DHT22;5396;50.950;6.988;2023-10-09T03:30:08;14.60;99.90
10692;DHT22;5396;50.950;6.988;2023-10-09T03:32:35;14.60;99.90
10692;DHT22;5396;50.950;6.988;2023-10-09T03:35:01;14.60;99.90
10692;DHT22;5396;50.950;6.988;2023-10-09T03:37:28;14.50;99.90
10692;DHT22;5396;50.950;6.988;2023-10-09T03:40:05;14.50;99.90
10692;DHT22;5396;50.950;6.988;2023-10-09T03:42:33;14.50;99.90
10692;DHT22;5396;50.950;6.988;2023-10-09T03:45:01;14.50;99.90
10692;DHT22;5396;50.950;6.988;2023-10-09T03:47:31;14.50;99.90
10692;DHT22;5396;50.950;6.988;2023-10-09T03:49:57;14.60;99.90
10692;DHT22;5396;50.950;6.988;2023-10-09T03:52:27;14.60;99.90
10692;DHT22;5396;50.950;6.988;2023-10-09T03:54:56;14.60;99.90
10692;DHT22;5396;50.950;6.988;2023-10-09T03:57:22;14.60;99.90
10692;DHT22;5396;50.950;6.988;2023-10-09T03:59:48;14.60;99.90
10692;DHT22;5396;50.950;6.988;2023-10-09T04:02:15;14.60;99.90
10692;DHT22;5396;50.950;6.988;2023-10-09T04:04:42;14.60;99.90
10692;DHT22;5396;50.950;6.988;2023-10-09T04:07:13;14.60;99.90
10692;DHT22;5396;50.950;6.988;2023-10-09T04:09:40;14.70;99.90
10692;DHT22;5396;50.950;6.988;2023-10-09T04:12:10;14.70;99.90
10692;DHT22;5396;50.950;6.988;2023-10-09T04:14:39;14.70;99.90
10692;DHT22;5396;50.950;6.988;2023-10-09T04:17:14;14.80;99.90
10692;DHT22;5396;50.950;6.988;2023-10-09T04:19:58;14.80;99.90
10692;DHT22;5396;50.950;6.988;2023-10-09T04:22:42;14.80;99.90
10692;DHT22;5396;50.950;6.988;2023-10-09T04:25:19;14.80;99.90
10692;DHT22;5396;50.950;6.988;2023-10-09T04:27:59;14.90;99.90
10692;DHT22;5396;50.950;6.988;2023-10-09T04:30:35;14.90;99.90
10692;DHT22;5396;50.950;6.988;2023-10-09T04:33:06;14.90;99.90
10692;DHT22;5396;50.950;6.988;2023-10-09T04:35:51;14.90;99.90
10692;DHT22;5396;50.950;6.988;2023-10-09T04:38:37;14.90;99.90
10692;DHT22;5396;50.950;6.988;2023-10-09T04:41:05;15.00;99.90
10692;DHT22;5396;50.950;6.988;2023-10-09T04:43:31;15.00;99.90
10692;DHT22;5396;50.950;6.988;2023-10-09T04:45:58;15.00;99.90
10692;DHT22;5396;50.950;6.988;2023-10-09T04:48:38;15.00;99.90
10692;DHT22;5396;50.950;6.988;2023-10-09T04:51:07;15.00;99.90
10692;DHT22;5396;50.950;6.988;2023-10-09T04:53:51;15.00;99.90
10692;DHT22;5396;50.950;6.988;2023-10-09T04:56:39;15.10;99.90
10692;DHT22;5396;50.950;6.988;2023-10-09T04:59:18;15.00;99.90
10692;DHT22;5396;50.950;6.988;2023-10-09T05:01:44;15.00;99.90
10692;DHT22;5396;50.950;6.988;2023-10-09T05:04:12;15.00;99.90
10692;DHT22;5396;50.950;6.988;2023-10-09T05:06:55;15.00;99.90
10692;DHT22;5396;50.950;6.988;2023-10-09T05:09:22;15.00;99.90
10692;DHT22;5396;50.950;6.988;2023-10-09T05:11:48;15.00;99.90
10692;DHT22;5396;50.950;6.988;2023-10-09T05:14:16;15.00;99.90
10692;DHT22;5396;50.950;6.988;2023-10-09T05:16:42;15.00;99.90
10692;DHT22;5396;50.950;6.988;2023-10-09T05:19:23;15.00;99.90
10692;DHT22;5396;50.950;6.988;2023-10-09T05:21:55;15.00;99.90
10692;DHT22;5396;50.950;6.988;2023-10-09T05:24:24;15.10;99.90
10692;DHT22;5396;50.950;6.988;2023-10-09T05:26:52;15.10;99.90
10692;DHT22;5396;50.950;6.988;2023-10-09T05:29:19;15.10;99.90
10692;DHT22;5396;50.950;6.988;2023-10-09T05:31:46;15.10;99.90
10692;DHT22;5396;50.950;6.988;2023-10-09T05:34:22;15.20;99.90
10692;DHT22;5396;50.950;6.988;2023-10-09T05:36:51;15.20;99.90
10692;DHT22;5396;50.950;6.988;2023-10-09T05:39:17;15.30;99.90
10692;DHT22;5396;50.950;6.988;2023-10-09T05:42:06;15.30;99.90
10692;DHT22;5396;50.950;6.988;2023-10-09T05:44:42;15.30;99.90
10692;DHT22;5396;50.950;6.988;2023-10-09T05:47:25;15.30;99.90
10692;DHT22;5396;50.950;6.988;2023-10-09T05:49:57;15.20;99.90
10692;DHT22;5396;50.950;6.988;2023-10-09T05:52:42;15.20;99.90
10692;DHT22;5396;50.950;6.988;2023-10-09T05:55:30;15.10;99.90
10692;DHT22;5396;50.950;6.988;2023-10-09T05:58:34;15.10;99.90
10692;DHT22;5396;50.950;6.988;2023-10-09T06:01:28;15.20;99.90
10692;DHT22;5396;50.950;6.988;2023-10-09T06:04:12;15.20;99.90
10692;DHT22;5396;50.950;6.988;2023-10-09T06:06:44;15.20;99.90
10692;DHT22;5396;50.950;6.988;2023-10-09T06:09:22;15.20;99.90
10692;DHT22;5396;50.950;6.988;2023-10-09T06:11:49;15.20;99.90
10692;DHT22;5396;50.950;6.988;2023-10-09T06:14:23;15.20;99.90
10692;DHT22;5396;50.950;6.988;2023-10-09T06:17:08;15.20;99.90
10692;DHT22;5396;50.950;6.988;2023-10-09T06:19:37;15.30;99.90
10692;DHT22;5396;50.950;6.988;2023-10-09T06:22:09;15.30;99.90
10692;DHT22;5396;50.950;6.988;2023-10-09T06:24:41;15.30;99.90
10692;DHT22;5396;50.950;6.988;2023-10-09T06:27:27;15.40;99.90
10692;DHT22;5396;50.950;6.988;2023-10-09T06:29:56;15.40;99.90
10692;DHT22;5396;50.950;6.988;2023-10-09T06:32:38;15.40;99.90
10692;DHT22;5396;50.950;6.988;2023-10-09T06:35:15;15.40;99.90
10692;DHT22;5396;50.950;6.988;2023-10-09T06:37:51;15.40;99.90
10692;DHT22;5396;50.950;6.988;2023-10-09T06:40:29;15.50;99.90
10692;DHT22;5396;50.950;6.988;2023-10-09T06:43:14;15.50;99.90
10692;DHT22;5396;50.950;6.988;2023-10-09T06:45:43;15.50;99.90
10692;DHT22;5396;50.950;6.988;2023-10-09T06:48:10;15.50;99.90
10692;DHT22;5396;50.950;6.988;2023-10-09T06:50:54;15.50;99.90
10692;DHT22;5396;50.950;6.988;2023-10-09T06:53:44;15.60;99.90
10692;DHT22;5396;50.950;6.988;2023-10-09T06:56:21;15.70;99.90
10692;DHT22;5396;50.950;6.988;2023-10-09T06:59:00;15.80;99.90
10692;DHT22;5396;50.950;6.988;2023-10-09T07:01:48;15.80;99.90
10692;DHT22;5396;50.950;6.988;2023-10-09T07:04:34;15.90;99.90
10692;DHT22;5396;50.950;6.988;2023-10-09T07:06:59;16.00;99.90
10692;DHT22;5396;50.950;6.988;2023-10-09T07:09:27;16.00;99.90
10692;DHT22;5396;50.950;6.988;2023-10-09T07:12:11;16.00;99.90
10692;DHT22;5396;50.950;6.988;2023-10-09T07:14:46;16.10;99.90
10692;DHT22;5396;50.950;6.988;2023-10-09T07:17:12;16.10;99.90
10692;DHT22;5396;50.950;6.988;2023-10-09T07:19:56;16.10;99.90
10692;DHT22;5396;50.950;6.988;2023-10-09T07:22:37;16.10;99.90
10692;DHT22;5396;50.950;6.988;2023-10-09T07:25:18;16.10;99.90
10692;DHT22;5396;50.950;6.988;2023-10-09T07:28:06;16.20;99.90
10692;DHT22;5396;50.950;6.988;2023-10-09T07:30:45;16.20;99.90
10692;DHT22;5396;50.950;6.988;2023-10-09T07:33:11;16.30;99.90
10692;DHT22;5396;50.950;6.988;2023-10-09T07:38:18;16.40;99.90
10692;DHT22;5396;50.950;6.988;2023-10-09T07:40:48;16.50;99.90
10692;DHT22;5396;50.950;6.988;2023-10-09T07:43:37;16.60;99.90
10692;DHT22;5396;50.950;6.988;2023-10-09T07:46:15;16.80;99.90
10692;DHT22;5396;50.950;6.988;2023-10-09T07:49:03;16.90;99.90
10692;DHT22;5396;50.950;6.988;2023-10-09T07:51:37;17.00;99.90
10692;DHT22;5396;50.950;6.988;2023-10-09T07:54:03;17.10;99.90
10692;DHT22;5396;50.950;6.988;2023-10-09T07:56:33;17.10;99.90
10692;DHT22;5396;50.950;6.988;2023-10-09T07:59:05;17.10;99.90
10692;DHT22;5396;50.950;6.988;2023-10-09T08:01:37;17.20;99.90
10692;DHT22;5396;50.950;6.988;2023-10-09T08:04:03;17.20;99.90
10692;DHT22;5396;50.950;6.988;2023-10-09T08:06:39;17.30;99.90
10692;DHT22;5396;50.950;6.988;2023-10-09T08:09:11;17.40;99.90
10692;DHT22;5396;50.950;6.988;2023-10-09T08:11:44;17.40;99.90
10692;DHT22;5396;50.950;6.988;2023-10-09T08:14:14;17.50;99.90
10692;DHT22;5396;50.950;6.988;2023-10-09T08:16:58;17.60;99.90
10692;DHT22;5396;50.950;6.988;2023-10-09T08:19:53;17.70;99.90
10692;DHT22;5396;50.950;6.988;2023-10-09T08:22:26;17.80;99.90
10692;DHT22;5396;50.950;6.988;2023-10-09T08:24:53;17.90;99.90
10692;DHT22;5396;50.950;6.988;2023-10-09T08:27:22;18.00;99.90
10692;DHT22;5396;50.950;6.988;2023-10-09T08:30:01;18.10;99.90
10692;DHT22;5396;50.950;6.988;2023-10-09T08:32:46;18.20;99.90
10692;DHT22;5396;50.950;6.988;2023-10-09T08:35:50;18.40;99.90
10692;DHT22;5396;50.950;6.988;2023-10-09T08:38:17;18.50;99.90
10692;DHT22;5396;50.950;6.988;2023-10-09T08:40:50;18.50;99.90
10692;DHT22;5396;50.950;6.988;2023-10-09T08:43:20;18.50;99.90
10692;DHT22;5396;50.950;6.988;2023-10-09T08:45:54;18.50;99.90
10692;DHT22;5396;50.950;6.988;2023-10-09T08:48:23;18.40;99.90
10692;DHT22;5396;50.950;6.988;2023-10-09T08:50:52;18.40;99.90
10692;DHT22;5396;50.950;6.988;2023-10-09T08:53:20;18.30;99.90
10692;DHT22;5396;50.950;6.988;2023-10-09T08:55:46;18.40;99.90
10692;DHT22;5396;50.950;6.988;2023-10-09T08:58:14;18.40;99.90
10692;DHT22;5396;50.950;6.988;2023-10-09T09:00:51;18.60;99.90
10692;DHT22;5396;50.950;6.988;2023-10-09T09:03:18;18.70;99.90
10692;DHT22;5396;50.950;6.988;2023-10-09T09:05:47;18.90;99.90
10692;DHT22;5396;50.950;6.988;2023-10-09T09:08:24;19.00;99.90
10692;DHT22;5396;50.950;6.988;2023-10-09T09:11:01;19.00;99.90
10692;DHT22;5396;50.950;6.988;2023-10-09T09:16:29;19.20;99.90
10692;DHT22;5396;50.950;6.988;2023-10-09T09:19:00;19.20;99.90
10692;DHT22;5396;50.950;6.988;2023-10-09T09:21:31;19.10;99.90
10692;DHT22;5396;50.950;6.988;2023-10-09T09:24:03;19.10;99.90
10692;DHT22;5396;50.950;6.988;2023-10-09T09:26:37;19.10;99.90
10692;DHT22;5396;50.950;6.988;2023-10-09T09:29:04;19.30;99.90
10692;DHT22;5396;50.950;6.988;2023-10-09T09:31:31;19.40;99.90
10692;DHT22;5396;50.950;6.988;2023-10-09T09:34:06;19.50;99.90
10692;DHT22;5396;50.950;6.988;2023-10-09T09:36:53;19.50;99.90
10692;DHT22;5396;50.950;6.988;2023-10-09T09:39:27;19.60;99.90
10692;DHT22;5396;50.950;6.988;2023-10-09T09:41:58;19.60;99.90
10692;DHT22;5396;50.950;6.988;2023-10-09T09:44:33;19.70;99.90
10692;DHT22;5396;50.950;6.988;2023-10-09T09:47:09;19.70;99.90
10692;DHT22;5396;50.950;6.988;2023-10-09T09:49:41;19.80;99.90
10692;DHT22;5396;50.950;6.988;2023-10-09T09:52:07;19.80;99.90
10692;DHT22;5396;50.950;6.988;2023-10-09T09:54:38;19.80;99.90
10692;DHT22;5396;50.950;6.988;2023-10-09T09:57:07;19.80;99.90
10692;DHT22;5396;50.950;6.988;2023-10-09T09:59:38;20.00;99.90
10692;DHT22;5396;50.950;6.988;2023-10-09T10:02:20;20.10;99.90
10692;DHT22;5396;50.950;6.988;2023-10-09T10:04:50;20.30;99.90
10692;DHT22;5396;50.950;6.988;2023-10-09T10:07:17;20.60;99.90
10692;DHT22;5396;50.950;6.988;2023-10-09T10:09:46;20.80;99.90
10692;DHT22;5396;50.950;6.988;2023-10-09T10:12:15;21.00;99.90
10692;DHT22;5396;50.950;6.988;2023-10-09T10:15:00;21.00;99.90
10692;DHT22;5396;50.950;6.988;2023-10-09T10:20:25;21.10;99.90
10692;DHT22;5396;50.950;6.988;2023-10-09T10:23:14;21.30;99.90
10692;DHT22;5396;50.950;6.988;2023-10-09T10:25:43;21.50;99.90
10692;DHT22;5396;50.950;6.988;2023-10-09T10:28:24;21.60;99.90
10692;DHT22;5396;50.950;6.988;2023-10-09T10:31:10;21.70;99.90
10692;DHT22;5396;50.950;6.988;2023-10-09T10:36:25;21.80;99.90
10692;DHT22;5396;50.950;6.988;2023-10-09T10:39:00;21.80;99.90
10692;DHT22;5396;50.950;6.988;2023-10-09T10:41:30;21.90;99.90
10692;DHT22;5396;50.950;6.988;2023-10-09T10:44:01;22.00;99.90
10692;DHT22;5396;50.950;6.988;2023-10-09T10:46:47;22.10;99.90
10692;DHT22;5396;50.950;6.988;2023-10-09T10:49:22;22.20;99.90
10692;DHT22;5396;50.950;6.988;2023-10-09T10:51:49;22.20;99.90
10692;DHT22;5396;50.950;6.988;2023-10-09T10:54:25;22.20;99.90
10692;DHT22;5396;50.950;6.988;2023-10-09T10:57:02;22.10;99.90
10692;DHT22;5396;50.950;6.988;2023-10-09T10:59:40;22.20;99.90
10692;DHT22;5396;50.950;6.988;2023-10-09T11:02:10;22.20;99.90
10692;DHT22;5396;50.950;6.988;2023-10-09T11:04:37;22.10;99.90
10692;DHT22;5396;50.950;6.988;2023-10-09T11:07:09;21.90;99.90
10692;DHT22;5396;50.950;6.988;2023-10-09T11:09:52;21.90;99.90
10692;DHT22;5396;50.950;6.988;2023-10-09T11:12:31;21.80;99.90
10692;DHT22;5396;50.950;6.988;2023-10-09T11:15:16;21.90;99.90
10692;DHT22;5396;50.950;6.988;2023-10-09T11:18:06;22.00;99.90
10692;DHT22;5396;50.950;6.988;2023-10-09T11:20:43;22.10;99.90
10692;DHT22;5396;50.950;6.988;2023-10-09T11:23:22;22.30;99.90
10692;DHT22;5396;50.950;6.988;2023-10-09T11:26:03;22.20;99.90
10692;DHT22;5396;50.950;6.988;2023-10-09T11:29:10;22.10;99.90
10692;DHT22;5396;50.950;6.988;2023-10-09T11:32:07;22.20;99.90
10692;DHT22;5396;50.950;6.988;2023-10-09T11:35:14;22.30;99.90
10692;DHT22;5396;50.950;6.988;2023-10-09T11:37:57;22.20;99.90
10692;DHT22;5396;50.950;6.988;2023-10-09T11:40:33;22.20;99.90
10692;DHT22;5396;50.950;6.988;2023-10-09T11:43:17;22.10;99.90
10692;DHT22;5396;50.950;6.988;2023-10-09T11:45:43;22.10;99.90
10692;DHT22;5396;50.950;6.988;2023-10-09T11:48:20;22.20;99.90
10692;DHT22;5396;50.950;6.988;2023-10-09T11:50:54;22.20;99.90
10692;DHT22;5396;50.950;6.988;2023-10-09T11:53:42;22.10;99.90
10692;DHT22;5396;50.950;6.988;2023-10-09T11:56:09;22.10;99.90
10692;DHT22;5396;50.950;6.988;2023-10-09T11:58:39;22.10;99.90
10692;DHT22;5396;50.950;6.988;2023-10-09T12:01:11;22.30;99.90
10692;DHT22;5396;50.950;6.988;2023-10-09T12:03:43;22.50;99.90
10692;DHT22;5396;50.950;6.988;2023-10-09T12:06:09;22.40;99.90
10692;DHT22;5396;50.950;6.988;2023-10-09T12:08:38;22.40;99.90
10692;DHT22;5396;50.950;6.988;2023-10-09T12:11:07;22.20;99.90
10692;DHT22;5396;50.950;6.988;2023-10-09T12:13:40;22.00;99.90
10692;DHT22;5396;50.950;6.988;2023-10-09T12:16:07;22.00;99.90
10692;DHT22;5396;50.950;6.988;2023-10-09T12:18:37;22.10;99.90
10692;DHT22;5396;50.950;6.988;2023-10-09T12:21:04;22.20;99.90
10692;DHT22;5396;50.950;6.988;2023-10-09T12:23:31;22.20;99.90
10692;DHT22;5396;50.950;6.988;2023-10-09T12:26:04;22.10;99.90
10692;DHT22;5396;50.950;6.988;2023-10-09T12:28:30;22.20;99.90
10692;DHT22;5396;50.950;6.988;2023-10-09T12:30:59;22.30;99.90
10692;DHT22;5396;50.950;6.988;2023-10-09T12:33:28;22.20;99.90
10692;DHT22;5396;50.950;6.988;2023-10-09T12:35:54;22.20;99.90
10692;DHT22;5396;50.950;6.988;2023-10-09T12:38:29;22.20;99.90
10692;DHT22;5396;50.950;6.988;2023-10-09T12:41:05;22.30;99.90
10692;DHT22;5396;50.950;6.988;2023-10-09T12:43:44;22.30;99.90
10692;DHT22;5396;50.950;6.988;2023-10-09T12:46:09;22.20;99.90
10692;DHT22;5396;50.950;6.988;2023-10-09T12:48:35;22.10;99.90
10692;DHT22;5396;50.950;6.988;2023-10-09T12:51:03;22.10;99.90
10692;DHT22;5396;50.950;6.988;2023-10-09T12:53:34;22.00;99.90
10692;DHT22;5396;50.950;6.988;2023-10-09T12:56:00;21.90;99.90
10692;DHT22;5396;50.950;6.988;2023-10-09T12:58:46;21.80;99.90
10692;DHT22;5396;50.950;6.988;2023-10-09T13:01:21;21.80;99.90
10692;DHT22;5396;50.950;6.988;2023-10-09T13:03:46;21.80;99.90
10692;DHT22;5396;50.950;6.988;2023-10-09T13:06:15;21.70;99.90
10692;DHT22;5396;50.950;6.988;2023-10-09T13:08:42;21.60;99.90
10692;DHT22;5396;50.950;6.988;2023-10-09T13:11:11;21.70;99.90
10692;DHT22;5396;50.950;6.988;2023-10-09T13:13:40;21.70;99.90
10692;DHT22;5396;50.950;6.988;2023-10-09T13:16:11;21.60;99.90
10692;DHT22;5396;50.950;6.988;2023-10-09T13:18:41;21.60;99.90
10692;DHT22;5396;50.950;6.988;2023-10-09T13:23:43;21.60;99.90
10692;DHT22;5396;50.950;6.988;2023-10-09T13:26:13;21.60;99.90
10692;DHT22;5396;50.950;6.988;2023-10-09T13:28:50;21.60;99.90
10692;DHT22;5396;50.950;6.988;2023-10-09T13:31:16;21.60;99.90
10692;DHT22;5396;50.950;6.988;2023-10-09T13:33:42;21.50;99.90
10692;DHT22;5396;50.950;6.988;2023-10-09T13:36:10;21.50;99.90
10692;DHT22;5396;50.950;6.988;2023-10-09T13:38:55;21.50;99.90
10692;DHT22;5396;50.950;6.988;2023-10-09T13:41:22;21.50;99.90
10692;DHT22;5396;50.950;6.988;2023-10-09T13:43:51;21.50;99.90
10692;DHT22;5396;50.950;6.988;2023-10-09T13:46:17;21.50;99.90
10692;DHT22;5396;50.950;6.988;2023-10-09T13:48:44;21.60;99.90
10692;DHT22;5396;50.950;6.988;2023-10-09T13:51:11;21.60;99.90
10692;DHT22;5396;50.950;6.988;2023-10-09T13:53:46;21.60;99.90
10692;DHT22;5396;50.950;6.988;2023-10-09T13:56:17;21.60;99.90
10692;DHT22;5396;50.950;6.988;2023-10-09T13:58:47;21.60;99.90
10692;DHT22;5396;50.950;6.988;2023-10-09T14:01:13;21.60;99.90
10692;DHT22;5396;50.950;6.988;2023-10-09T14:03:58;21.70;99.90
10692;DHT22;5396;50.950;6.988;2023-10-09T14:06:25;21.80;99.90
10692;DHT22;5396;50.950;6.988;2023-10-09T14:09:03;21.90;99.90
10692;DHT22;5396;50.950;6.988;2023-10-09T14:11:35;22.00;99.90
10692;DHT22;5396;50.950;6.988;2023-10-09T14:14:05;22.20;99.90
10692;DHT22;5396;50.950;6.988;2023-10-09T14:16:35;22.20;99.90
10692;DHT22;5396;50.950;6.988;2023-10-09T14:19:01;22.20;99.90
10692;DHT22;5396;50.950;6.988;2023-10-09T14:21:33;22.30;99.90
10692;DHT22;5396;50.950;6.988;2023-10-09T14:24:06;22.30;99.90
10692;DHT22;5396;50.950;6.988;2023-10-09T14:26:41;22.30;99.90
10692;DHT22;5396;50.950;6.988;2023-10-09T14:29:07;22.30;99.90
10692;DHT22;5396;50.950;6.988;2023-10-09T14:31:33;22.30;99.90
10692;DHT22;5396;50.950;6.988;2023-10-09T14:34:05;22.30;99.90
10692;DHT22;5396;50.950;6.988;2023-10-09T14:36:30;22.30;99.90
10692;DHT22;5396;50.950;6.988;2023-10-09T14:39:00;22.30;99.90
10692;DHT22;5396;50.950;6.988;2023-10-09T14:41:26;22.30;99.90
10692;DHT22;5396;50.950;6.988;2023-10-09T14:43:53;22.20;99.90
10692;DHT22;5396;50.950;6.988;2023-10-09T14:46:20;22.20;99.90
10692;DHT22;5396;50.950;6.988;2023-10-09T14:48:55;22.20;99.90
10692;DHT22;5396;50.950;6.988;2023-10-09T14:51:22;22.10;99.90
10692;DHT22;5396;50.950;6.988;2023-10-09T14:53:54;22.00;99.90
10692;DHT22;5396;50.950;6.988;2023-10-09T14:56:23;22.00;99.90
10692;DHT22;5396;50.950;6.988;2023-10-09T14:58:55;21.80;99.90
10692;DHT22;5396;50.950;6.988;2023-10-09T15:01:22;21.80;99.90
10692;DHT22;5396;50.950;6.988;2023-10-09T15:03:50;21.70;99.90
10692;DHT22;5396;50.950;6.988;2023-10-09T15:06:18;21.70;99.90
10692;DHT22;5396;50.950;6.988;2023-10-09T15:08:44;21.60;99.90
10692;DHT22;5396;50.950;6.988;2023-10-09T15:11:10;21.60;99.90
10692;DHT22;5396;50.950;6.988;2023-10-09T15:13:36;21.50;99.90
10692;DHT22;5396;50.950;6.988;2023-10-09T15:16:04;21.40;99.90
10692;DHT22;5396;50.950;6.988;2023-10-09T15:18:30;21.40;99.90
10692;DHT22;5396;50.950;6.988;2023-10-09T15:20:59;21.30;99.90
10692;DHT22;5396;50.950;6.988;2023-10-09T15:23:25;21.30;99.90
10692;DHT22;5396;50.950;6.988;2023-10-09T15:25:51;21.30;99.90
10692;DHT22;5396;50.950;6.988;2023-10-09T15:28:23;21.20;99.90
10692;DHT22;5396;50.950;6.988;2023-10-09T15:30:49;21.20;99.90
10692;DHT22;5396;50.950;6.988;2023-10-09T15:33:15;21.30;99.90
10692;DHT22;5396;50.950;6.988;2023-10-09T15:35:45;21.30;99.90
10692;DHT22;5396;50.950;6.988;2023-10-09T15:38:12;21.30;99.90
10692;DHT22;5396;50.950;6.988;2023-10-09T15:40:39;21.30;99.90
10692;DHT22;5396;50.950;6.988;2023-10-09T15:43:08;21.20;99.90
10692;DHT22;5396;50.950;6.988;2023-10-09T15:45:42;21.20;99.90
10692;DHT22;5396;50.950;6.988;2023-10-09T15:48:10;21.20;99.90
10692;DHT22;5396;50.950;6.988;2023-10-09T15:50:38;21.20;99.90
10692;DHT22;5396;50.950;6.988;2023-10-09T15:53:05;21.20;99.90
10692;DHT22;5396;50.950;6.988;2023-10-09T15:55:34;21.10;99.90
10692;DHT22;5396;50.950;6.988;2023-10-09T15:57:59;21.00;99.90
10692;DHT22;5396;50.950;6.988;2023-10-09T16:00:25;20.90;99.90
10692;DHT22;5396;50.950;6.988;2023-10-09T16:02:54;20.90;99.90
10692;DHT22;5396;50.950;6.988;2023-10-09T16:05:20;20.80;99.90
10692;DHT22;5396;50.950;6.988;2023-10-09T16:07:51;20.80;99.90
10692;DHT22;5396;50.950;6.988;2023-10-09T16:10:17;20.70;99.90
10692;DHT22;5396;50.950;6.988;2023-10-09T16:12:43;20.60;99.90
10692;DHT22;5396;50.950;6.988;2023-10-09T16:15:10;20.50;99.90
10692;DHT22;5396;50.950;6.988;2023-10-09T16:17:36;20.40;99.90
10692;DHT22;5396;50.950;6.988;2023-10-09T16:20:03;20.40;99.90
10692;DHT22;5396;50.950;6.988;2023-10-09T16:22:31;20.40;99.90
10692;DHT22;5396;50.950;6.988;2023-10-09T16:25:01;20.30;99.90
10692;DHT22;5396;50.950;6.988;2023-10-09T16:27:27;20.30;99.90
10692;DHT22;5396;50.950;6.988;2023-10-09T16:29:53;20.20;99.90
10692;DHT22;5396;50.950;6.988;2023-10-09T16:32:19;20.20;99.90
10692;DHT22;5396;50.950;6.988;2023-10-09T16:34:50;20.10;99.90
10692;DHT22;5396;50.950;6.988;2023-10-09T16:37:18;20.10;99.90